createdAt,value
2022-07-25T00:00:06.599Z,21.05
2022-07-25T00:01:06.893Z,21.04
2022-07-25T00:02:07.322Z,21.05
2022-07-25T00:03:06.549Z,21.05
2022-07-25T00:04:07.072Z,21.05
2022-07-25T00:05:06.523Z,21.05
2022-07-25T00:06:06.508Z,21.04
2022-07-25T00:07:07.539Z,21.05
2022-07-25T00:08:06.486Z,21.04
2022-07-25T00:09:06.473Z,21.04
2022-07-25T00:10:06.459Z,21.04
2022-07-25T00:11:06.443Z,21.04
2022-07-25T00:12:06.438Z,21.04
2022-07-25T00:13:06.416Z,21.04
2022-07-25T00:14:06.701Z,21.04
2022-07-25T00:15:06.397Z,21.03
2022-07-25T00:16:06.447Z,21.03
2022-07-25T00:17:06.366Z,21.03
2022-07-25T00:18:06.355Z,21.03
2022-07-25T00:19:06.336Z,21.03
2022-07-25T00:20:06.330Z,21.03
2022-07-25T00:21:06.307Z,21.03
2022-07-25T00:22:06.293Z,21.03
2022-07-25T00:23:06.282Z,21.04
2022-07-25T00:24:06.678Z,21.03
2022-07-25T00:25:06.255Z,21.03
2022-07-25T00:26:06.249Z,21.03
2022-07-25T00:27:06.236Z,21.01
2022-07-25T00:28:06.371Z,21.00
2022-07-25T00:29:06.201Z,21.01
2022-07-25T00:30:06.189Z,21.01
2022-07-25T00:31:06.262Z,21.00
2022-07-25T00:32:06.164Z,21.01
2022-07-25T00:33:06.161Z,21.01
2022-07-25T00:34:06.510Z,21.01
2022-07-25T00:35:06.128Z,21.01
2022-07-25T00:36:06.106Z,21.01
2022-07-25T00:37:06.103Z,21.00
2022-07-25T00:38:06.088Z,21.01
2022-07-25T00:39:06.078Z,21.01
2022-07-25T00:40:06.206Z,20.98
2022-07-25T00:41:06.041Z,21.01
2022-07-25T00:42:06.030Z,21.00
2022-07-25T00:43:06.025Z,21.01
2022-07-25T00:44:06.401Z,21.00
2022-07-25T00:45:05.990Z,20.98
2022-07-25T00:46:06.047Z,21.00
2022-07-25T00:47:05.966Z,21.00
2022-07-25T00:48:05.952Z,20.98
2022-07-25T00:49:06.004Z,20.98
2022-07-25T00:50:05.923Z,20.98
2022-07-25T00:51:05.910Z,20.98
2022-07-25T00:52:05.893Z,21.00
2022-07-25T00:53:05.883Z,20.98
2022-07-25T00:54:06.396Z,20.97
2022-07-25T00:55:05.859Z,20.98
2022-07-25T00:56:05.864Z,20.98
2022-07-25T00:57:05.841Z,20.95
2022-07-25T00:58:05.821Z,20.98
2022-07-25T00:59:05.805Z,20.95
2022-07-25T01:00:05.799Z,20.97
2022-07-25T01:01:05.975Z,20.98
2022-07-25T01:02:05.841Z,20.98
2022-07-25T01:03:05.875Z,20.97
2022-07-25T01:04:06.102Z,20.95
2022-07-25T01:05:05.737Z,20.97
2022-07-25T01:06:05.720Z,20.95
2022-07-25T01:07:05.702Z,20.95
2022-07-25T01:08:05.689Z,20.95
2022-07-25T01:09:05.677Z,20.95
2022-07-25T01:10:05.671Z,20.95
2022-07-25T01:11:05.648Z,20.94
2022-07-25T01:12:05.644Z,20.94
2022-07-25T01:13:05.625Z,20.94
2022-07-25T01:14:06.005Z,20.94
2022-07-25T01:15:05.607Z,20.94
2022-07-25T01:16:05.632Z,20.94
2022-07-25T01:17:05.575Z,20.94
2022-07-25T01:18:05.567Z,20.94
2022-07-25T01:19:05.545Z,20.94
2022-07-25T01:20:05.533Z,20.94
2022-07-25T01:21:05.518Z,20.92
2022-07-25T01:22:05.519Z,20.92
2022-07-25T01:23:05.497Z,20.90
2022-07-25T01:24:05.955Z,20.92
2022-07-25T01:25:05.467Z,20.92
2022-07-25T01:26:05.453Z,20.90
2022-07-25T01:27:05.453Z,20.92
2022-07-25T01:28:05.437Z,20.92
2022-07-25T01:29:05.420Z,20.90
2022-07-25T01:30:05.405Z,20.90
2022-07-25T01:31:05.490Z,20.92
2022-07-25T01:32:05.378Z,20.89
2022-07-25T01:33:06.668Z,20.90
2022-07-25T01:34:05.715Z,20.90
2022-07-25T01:35:05.353Z,20.89
2022-07-25T01:36:05.332Z,20.89
2022-07-25T01:37:05.324Z,20.90
2022-07-25T01:38:05.303Z,20.89
2022-07-25T01:39:05.296Z,20.89
2022-07-25T01:40:05.275Z,20.89
2022-07-25T01:41:05.259Z,20.90
2022-07-25T01:42:05.247Z,20.88
2022-07-25T01:43:05.235Z,20.89
2022-07-25T01:44:05.484Z,20.86
2022-07-25T01:45:05.252Z,20.88
2022-07-25T01:46:05.236Z,20.86
2022-07-25T01:47:05.191Z,20.88
2022-07-25T01:48:05.171Z,20.85
2022-07-25T01:49:05.219Z,20.88
2022-07-25T01:50:05.143Z,20.86
2022-07-25T01:51:05.127Z,20.88
2022-07-25T01:52:05.115Z,20.86
2022-07-25T01:53:05.109Z,20.85
2022-07-25T01:54:10.299Z,20.85
2022-07-25T01:55:05.109Z,20.83
2022-07-25T01:56:05.061Z,20.85
2022-07-25T01:57:05.058Z,20.85
2022-07-25T01:58:05.035Z,20.86
2022-07-25T01:59:05.032Z,20.83
2022-07-25T02:00:05.016Z,20.85
2022-07-25T02:01:05.035Z,20.83
2022-07-25T02:02:04.989Z,20.83
2022-07-25T02:03:04.980Z,20.83
2022-07-25T02:04:05.440Z,20.83
2022-07-25T02:05:04.980Z,20.83
2022-07-25T02:06:04.938Z,20.83
2022-07-25T02:07:05.478Z,20.83
2022-07-25T02:08:04.913Z,20.83
2022-07-25T02:09:04.901Z,20.82
2022-07-25T02:10:04.882Z,20.82
2022-07-25T02:11:04.877Z,20.82
2022-07-25T02:12:04.855Z,20.82
2022-07-25T02:13:04.842Z,20.82
2022-07-25T02:14:05.146Z,20.82
2022-07-25T02:15:04.814Z,20.82
2022-07-25T02:16:04.807Z,20.82
2022-07-25T02:17:04.840Z,20.80
2022-07-25T02:18:04.784Z,20.80
2022-07-25T02:19:04.770Z,20.79
2022-07-25T02:20:04.757Z,20.80
2022-07-25T02:21:04.739Z,20.80
2022-07-25T02:22:05.761Z,20.79
2022-07-25T02:23:04.713Z,20.80
2022-07-25T02:24:05.101Z,20.79
2022-07-25T02:25:04.684Z,20.80
2022-07-25T02:26:04.673Z,20.80
2022-07-25T02:27:04.666Z,20.78
2022-07-25T02:28:04.653Z,20.78
2022-07-25T02:29:04.653Z,20.79
2022-07-25T02:30:04.617Z,20.80
2022-07-25T02:31:04.686Z,20.78
2022-07-25T02:32:04.597Z,20.78
2022-07-25T02:33:04.580Z,20.78
2022-07-25T02:34:04.948Z,20.78
2022-07-25T02:35:04.565Z,20.76
2022-07-25T02:36:05.582Z,20.78
2022-07-25T02:37:04.527Z,20.76
2022-07-25T02:38:04.512Z,20.76
2022-07-25T02:39:04.522Z,20.76
2022-07-25T02:40:04.486Z,20.75
2022-07-25T02:41:04.476Z,20.75
2022-07-25T02:42:04.460Z,20.76
2022-07-25T02:43:04.460Z,20.75
2022-07-25T02:44:04.796Z,20.75
2022-07-25T02:45:04.424Z,20.75
2022-07-25T02:46:04.527Z,20.76
2022-07-25T02:47:04.399Z,20.75
2022-07-25T02:48:04.390Z,20.75
2022-07-25T02:49:04.546Z,20.75
2022-07-25T02:50:04.359Z,20.73
2022-07-25T02:51:04.345Z,20.75
2022-07-25T02:52:04.333Z,20.73
2022-07-25T02:53:04.317Z,20.73
2022-07-25T02:54:04.303Z,20.73
2022-07-25T02:55:09.245Z,20.73
2022-07-25T02:56:04.288Z,20.73
2022-07-25T02:57:04.288Z,20.71
2022-07-25T02:58:04.265Z,20.71
2022-07-25T02:59:04.239Z,20.73
2022-07-25T03:00:04.228Z,20.73
2022-07-25T03:01:04.287Z,20.71
2022-07-25T03:02:04.203Z,20.70
2022-07-25T03:03:04.268Z,20.70
2022-07-25T03:04:04.630Z,20.71
2022-07-25T03:05:04.163Z,20.70
2022-07-25T03:06:04.155Z,20.71
2022-07-25T03:07:04.139Z,20.71
2022-07-25T03:08:04.128Z,20.71
2022-07-25T03:09:04.114Z,20.70
2022-07-25T03:10:10.915Z,20.70
2022-07-25T03:11:05.130Z,20.70
2022-07-25T03:12:04.083Z,20.68
2022-07-25T03:13:04.073Z,20.68
2022-07-25T03:14:04.461Z,20.70
2022-07-25T03:15:04.039Z,20.68
2022-07-25T03:16:04.027Z,20.70
2022-07-25T03:17:04.099Z,20.67
2022-07-25T03:18:04.012Z,20.68
2022-07-25T03:19:04.139Z,20.68
2022-07-25T03:20:03.980Z,20.68
2022-07-25T03:21:03.964Z,20.67
2022-07-25T03:22:03.951Z,20.68
2022-07-25T03:23:03.946Z,20.67
2022-07-25T03:24:04.154Z,20.68
2022-07-25T03:25:03.914Z,20.67
2022-07-25T03:26:03.901Z,20.65
2022-07-25T03:27:03.893Z,20.65
2022-07-25T03:28:03.889Z,20.67
2022-07-25T03:29:03.860Z,20.67
2022-07-25T03:30:03.849Z,20.65
2022-07-25T03:31:03.837Z,20.67
2022-07-25T03:32:03.906Z,20.65
2022-07-25T03:33:03.811Z,20.65
2022-07-25T03:34:04.113Z,20.65
2022-07-25T03:35:03.792Z,20.64
2022-07-25T03:36:03.770Z,20.65
2022-07-25T03:37:03.763Z,20.67
2022-07-25T03:38:03.746Z,20.65
2022-07-25T03:39:05.463Z,20.64
2022-07-25T03:40:03.731Z,20.65
2022-07-25T03:41:03.711Z,20.65
2022-07-25T03:42:03.704Z,20.64
2022-07-25T03:43:03.698Z,20.64
2022-07-25T03:44:04.043Z,20.64
2022-07-25T03:45:03.658Z,20.64
2022-07-25T03:46:03.702Z,20.64
2022-07-25T03:47:03.640Z,20.64
2022-07-25T03:48:03.620Z,20.64
2022-07-25T03:49:03.679Z,20.64
2022-07-25T03:50:03.603Z,20.64
2022-07-25T03:51:07.073Z,20.63
2022-07-25T03:52:03.565Z,20.64
2022-07-25T03:53:03.556Z,20.64
2022-07-25T03:54:04.113Z,20.64
2022-07-25T03:55:03.529Z,20.64
2022-07-25T03:56:03.519Z,20.64
2022-07-25T03:57:03.504Z,20.64
2022-07-25T03:58:03.493Z,20.65
2022-07-25T03:59:03.491Z,20.64
2022-07-25T04:00:03.467Z,20.64
2022-07-25T04:01:03.483Z,20.64
2022-07-25T04:02:03.498Z,20.64
2022-07-25T04:03:03.428Z,20.64
2022-07-25T04:04:03.686Z,20.64
2022-07-25T04:05:03.401Z,20.63
2022-07-25T04:06:03.390Z,20.64
2022-07-25T04:07:03.382Z,20.63
2022-07-25T04:08:03.367Z,20.64
2022-07-25T04:09:03.355Z,20.64
2022-07-25T04:10:03.349Z,20.64
2022-07-25T04:11:03.330Z,20.63
2022-07-25T04:12:03.355Z,20.63
2022-07-25T04:13:03.308Z,20.63
2022-07-25T04:14:03.691Z,20.64
2022-07-25T04:15:03.325Z,20.65
2022-07-25T04:16:03.276Z,20.65
2022-07-25T04:17:03.338Z,20.64
2022-07-25T04:18:03.242Z,20.63
2022-07-25T04:19:03.228Z,20.63
2022-07-25T04:20:03.222Z,20.64
2022-07-25T04:21:03.223Z,20.64
2022-07-25T04:22:03.192Z,20.65
2022-07-25T04:23:03.174Z,20.67
2022-07-25T04:24:03.763Z,20.68
2022-07-25T04:25:03.160Z,20.68
2022-07-25T04:26:03.143Z,20.73
2022-07-25T04:27:03.133Z,20.73
2022-07-25T04:28:03.114Z,20.76
2022-07-25T04:29:03.101Z,20.78
2022-07-25T04:30:03.087Z,20.79
2022-07-25T04:31:03.102Z,20.80
2022-07-25T04:32:03.154Z,20.82
2022-07-25T04:33:03.050Z,20.85
2022-07-25T04:34:03.437Z,20.86
2022-07-25T04:35:03.028Z,20.89
2022-07-25T04:36:03.013Z,20.89
2022-07-25T04:37:03.001Z,20.90
2022-07-25T04:38:02.989Z,20.92
2022-07-25T04:39:02.976Z,20.94
2022-07-25T04:40:02.968Z,20.95
2022-07-25T04:41:02.957Z,20.97
2022-07-25T04:42:02.934Z,20.97
2022-07-25T04:43:02.919Z,20.98
2022-07-25T04:44:03.389Z,21.00
2022-07-25T04:45:02.893Z,21.01
2022-07-25T04:46:02.972Z,21.03
2022-07-25T04:47:02.866Z,21.03
2022-07-25T04:48:02.855Z,21.03
2022-07-25T04:49:02.943Z,21.04
2022-07-25T04:50:02.829Z,21.05
2022-07-25T04:51:02.824Z,21.07
2022-07-25T04:52:02.805Z,21.07
2022-07-25T04:53:02.799Z,21.13
2022-07-25T04:54:02.974Z,21.17
2022-07-25T04:55:02.767Z,21.19
2022-07-25T04:56:02.764Z,21.19
2022-07-25T04:57:02.750Z,21.20
2022-07-25T04:58:02.726Z,21.23
2022-07-25T04:59:06.661Z,21.24
2022-07-25T05:00:02.708Z,21.27
2022-07-25T05:01:02.775Z,21.29
2022-07-25T05:02:02.818Z,21.30
2022-07-25T05:03:02.663Z,21.32
2022-07-25T05:04:02.864Z,21.32
2022-07-25T05:05:03.067Z,21.34
2022-07-25T05:06:02.621Z,21.34
2022-07-25T05:07:02.614Z,21.36
2022-07-25T05:08:02.597Z,21.38
2022-07-25T05:09:02.586Z,21.38
2022-07-25T05:10:02.580Z,21.41
2022-07-25T05:11:02.559Z,21.44
2022-07-25T05:12:02.552Z,21.45
2022-07-25T05:13:02.583Z,21.45
2022-07-25T05:14:02.825Z,21.46
2022-07-25T05:15:02.504Z,21.48
2022-07-25T05:16:02.529Z,21.50
2022-07-25T05:17:02.487Z,21.51
2022-07-25T05:18:02.477Z,21.53
2022-07-25T05:19:02.464Z,21.51
2022-07-25T05:20:02.445Z,21.54
2022-07-25T05:21:02.424Z,21.54
2022-07-25T05:22:02.415Z,21.57
2022-07-25T05:23:02.400Z,21.57
2022-07-25T05:24:02.395Z,21.60
2022-07-25T05:25:02.421Z,21.60
2022-07-25T05:26:02.373Z,21.63
2022-07-25T05:27:02.351Z,21.61
2022-07-25T05:28:02.346Z,21.61
2022-07-25T05:29:02.332Z,21.64
2022-07-25T05:30:02.314Z,21.67
2022-07-25T05:31:02.451Z,21.66
2022-07-25T05:32:02.380Z,21.64
2022-07-25T05:33:02.275Z,21.66
2022-07-25T05:34:02.270Z,21.66
2022-07-25T05:35:02.244Z,21.69
2022-07-25T05:36:02.234Z,21.67
2022-07-25T05:37:02.227Z,21.67
2022-07-25T05:38:02.211Z,21.67
2022-07-25T05:39:02.191Z,21.67
2022-07-25T05:40:02.196Z,21.64
2022-07-25T05:41:02.173Z,21.64
2022-07-25T05:42:02.156Z,21.66
2022-07-25T05:43:03.593Z,21.67
2022-07-25T05:44:02.127Z,21.71
2022-07-25T05:45:02.125Z,21.71
2022-07-25T05:46:02.124Z,21.69
2022-07-25T05:47:02.194Z,21.67
2022-07-25T05:48:02.079Z,21.66
2022-07-25T05:49:02.114Z,21.66
2022-07-25T05:50:02.051Z,21.69
2022-07-25T05:51:02.041Z,21.67
2022-07-25T05:52:02.033Z,21.66
2022-07-25T05:53:02.014Z,21.66
2022-07-25T05:54:02.037Z,21.64
2022-07-25T05:55:01.991Z,21.64
2022-07-25T05:56:01.967Z,21.66
2022-07-25T05:57:01.963Z,21.64
2022-07-25T05:58:02.497Z,21.64
2022-07-25T05:59:01.928Z,21.63
2022-07-25T06:00:01.923Z,21.64
2022-07-25T06:01:01.910Z,21.64
2022-07-25T06:02:02.137Z,21.66
2022-07-25T06:03:01.975Z,21.64
2022-07-25T06:04:01.863Z,21.66
2022-07-25T06:05:01.863Z,21.66
2022-07-25T06:06:01.833Z,21.67
2022-07-25T06:07:01.832Z,21.66
2022-07-25T06:08:01.808Z,21.69
2022-07-25T06:09:01.792Z,21.69
2022-07-25T06:10:01.790Z,21.69
2022-07-25T06:11:01.766Z,21.71
2022-07-25T06:12:01.755Z,21.72
2022-07-25T06:13:01.747Z,21.72
2022-07-25T06:14:01.728Z,21.72
2022-07-25T06:15:01.716Z,21.72
2022-07-25T06:16:01.781Z,21.71
2022-07-25T06:17:01.694Z,21.69
2022-07-25T06:18:01.673Z,21.67
2022-07-25T06:19:01.664Z,21.66
2022-07-25T06:20:01.657Z,21.66
2022-07-25T06:21:01.643Z,21.66
2022-07-25T06:22:01.632Z,21.67
2022-07-25T06:23:01.609Z,21.66
2022-07-25T06:24:01.603Z,21.66
2022-07-25T06:25:01.592Z,21.66
2022-07-25T06:26:01.577Z,21.66
2022-07-25T06:27:01.553Z,21.66
2022-07-25T06:28:01.544Z,21.64
2022-07-25T06:29:01.528Z,21.67
2022-07-25T06:30:01.519Z,21.64
2022-07-25T06:31:01.596Z,21.69
2022-07-25T06:32:01.652Z,21.71
2022-07-25T06:33:01.477Z,21.71
2022-07-25T06:34:01.461Z,21.71
2022-07-25T06:35:01.455Z,21.72
2022-07-25T06:36:01.449Z,21.74
2022-07-25T06:37:01.420Z,21.76
2022-07-25T06:38:01.421Z,21.75
2022-07-25T06:39:01.405Z,21.74
2022-07-25T06:40:01.388Z,21.74
2022-07-25T06:41:01.378Z,21.74
2022-07-25T06:42:01.356Z,21.74
2022-07-25T06:43:01.352Z,21.75
2022-07-25T06:44:01.390Z,21.76
2022-07-25T06:45:01.323Z,21.78
2022-07-25T06:46:01.319Z,21.81
2022-07-25T06:47:01.379Z,21.81
2022-07-25T06:48:01.287Z,21.81
2022-07-25T06:49:01.370Z,21.82
2022-07-25T06:50:01.337Z,21.82
2022-07-25T06:51:01.245Z,21.85
2022-07-25T06:52:01.296Z,21.87
2022-07-25T06:53:01.216Z,21.85
2022-07-25T06:54:01.303Z,21.85
2022-07-25T06:55:01.272Z,21.83
2022-07-25T06:56:01.173Z,21.83
2022-07-25T06:57:01.162Z,21.82
2022-07-25T06:58:01.175Z,21.82
2022-07-25T06:59:01.155Z,21.79
2022-07-25T07:00:01.130Z,21.79
2022-07-25T07:01:01.464Z,21.79
2022-07-25T07:02:01.091Z,21.82
2022-07-25T07:03:01.157Z,21.83
2022-07-25T07:04:01.064Z,21.83
2022-07-25T07:05:01.053Z,21.83
2022-07-25T07:06:01.037Z,21.85
2022-07-25T07:07:01.025Z,21.87
2022-07-25T07:08:01.015Z,21.83
2022-07-25T07:09:01.000Z,21.83
2022-07-25T07:10:00.984Z,21.83
2022-07-25T07:11:00.974Z,21.82
2022-07-25T07:12:00.962Z,21.81
2022-07-25T07:13:00.950Z,21.83
2022-07-25T07:14:00.932Z,21.82
2022-07-25T07:15:00.927Z,21.82
2022-07-25T07:16:00.968Z,21.81
2022-07-25T07:17:00.893Z,21.81
2022-07-25T07:18:00.936Z,21.79
2022-07-25T07:19:00.873Z,21.79
2022-07-25T07:20:00.854Z,21.79
2022-07-25T07:21:00.848Z,21.81
2022-07-25T07:22:00.833Z,21.82
2022-07-25T07:23:00.815Z,21.82
2022-07-25T07:24:00.801Z,21.82
2022-07-25T07:25:00.786Z,21.82
2022-07-25T07:26:00.773Z,21.79
2022-07-25T07:27:00.767Z,21.79
2022-07-25T07:28:00.749Z,21.78
2022-07-25T07:29:00.743Z,21.78
2022-07-25T07:30:00.729Z,21.76
2022-07-25T07:31:17.520Z,21.76
2022-07-25T07:32:01.803Z,21.75
2022-07-25T07:33:00.678Z,21.76
2022-07-25T07:34:00.668Z,21.76
2022-07-25T07:35:00.654Z,21.72
2022-07-25T07:36:00.647Z,21.72
2022-07-25T07:37:00.626Z,21.72
2022-07-25T07:38:00.611Z,21.72
2022-07-25T07:39:00.607Z,21.72
2022-07-25T07:40:00.595Z,21.72
2022-07-25T07:41:00.583Z,21.75
2022-07-25T07:42:00.563Z,21.75
2022-07-25T07:43:00.545Z,21.76
2022-07-25T07:44:00.540Z,21.75
2022-07-25T07:45:00.521Z,21.75
2022-07-25T07:46:00.722Z,21.74
2022-07-25T07:47:00.605Z,21.75
2022-07-25T07:48:00.487Z,21.72
2022-07-25T07:49:00.537Z,21.72
2022-07-25T07:50:00.455Z,21.74
2022-07-25T07:51:00.444Z,21.74
2022-07-25T07:52:00.429Z,21.74
2022-07-25T07:53:00.414Z,21.74
2022-07-25T07:54:00.403Z,21.72
2022-07-25T07:55:00.398Z,21.74
2022-07-25T07:56:00.370Z,21.75
2022-07-25T07:57:00.363Z,21.76
2022-07-25T07:58:00.355Z,21.76
2022-07-25T07:59:00.337Z,21.76
2022-07-25T08:00:00.323Z,21.75
2022-07-25T08:01:00.341Z,21.78
2022-07-25T08:02:00.416Z,21.78
2022-07-25T08:03:00.473Z,21.78
2022-07-25T08:04:00.269Z,21.79
2022-07-25T08:05:00.261Z,21.78
2022-07-25T08:06:00.255Z,21.79
2022-07-25T08:07:00.226Z,21.79
2022-07-25T08:08:00.221Z,21.78
2022-07-25T08:09:00.200Z,21.76
2022-07-25T08:10:00.203Z,21.79
2022-07-25T08:11:00.181Z,21.75
2022-07-25T08:12:00.166Z,21.75
2022-07-25T08:13:00.162Z,21.75
2022-07-25T08:14:00.133Z,21.76
2022-07-25T08:15:00.129Z,21.76
2022-07-25T08:16:00.208Z,21.74
2022-07-25T08:17:00.096Z,21.75
2022-07-25T08:18:00.087Z,21.75
2022-07-25T08:19:00.087Z,21.75
2022-07-25T08:20:14.744Z,21.74
2022-07-25T08:21:01.076Z,21.75
2022-07-25T08:22:00.030Z,21.76
2022-07-25T08:23:00.032Z,21.78
2022-07-25T08:24:00.021Z,21.81
2022-07-25T08:25:00.002Z,21.85
2022-07-25T08:25:59.982Z,21.83
2022-07-25T08:26:59.970Z,21.81
2022-07-25T08:27:59.957Z,21.79
2022-07-25T08:29:17.487Z,21.79
2022-07-25T08:30:00.954Z,21.81
2022-07-25T08:31:00.012Z,21.78
2022-07-25T08:31:59.910Z,21.79
2022-07-25T08:32:59.885Z,21.79
2022-07-25T08:33:59.867Z,21.85
2022-07-25T08:34:59.852Z,21.87
2022-07-25T08:35:59.844Z,21.87
2022-07-25T08:36:59.834Z,21.90
2022-07-25T08:37:59.819Z,21.90
2022-07-25T08:38:59.803Z,21.90
2022-07-25T08:39:59.793Z,21.91
2022-07-25T08:40:59.862Z,21.91
2022-07-25T08:41:59.768Z,21.91
2022-07-25T08:42:59.747Z,21.90
2022-07-25T08:43:59.736Z,21.87
2022-07-25T08:44:59.730Z,21.83
2022-07-25T08:45:59.745Z,21.90
2022-07-25T08:46:59.805Z,21.91
2022-07-25T08:47:59.679Z,21.97
2022-07-25T08:48:59.713Z,22.00
2022-07-25T08:50:04.197Z,22.01
2022-07-25T08:50:59.648Z,21.97
2022-07-25T08:51:59.637Z,21.94
2022-07-25T08:53:31.514Z,21.94
2022-07-25T08:54:00.640Z,21.94
2022-07-25T08:54:59.604Z,21.94
2022-07-25T08:55:59.583Z,21.97
2022-07-25T08:56:59.571Z,21.98
2022-07-25T08:57:59.554Z,21.97
2022-07-25T08:58:59.543Z,21.96
2022-07-25T08:59:59.519Z,21.96
2022-07-25T09:00:59.516Z,21.94
2022-07-25T09:01:59.597Z,21.96
2022-07-25T09:02:59.554Z,22.00
2022-07-25T09:03:59.472Z,21.98
2022-07-25T09:04:59.468Z,21.98
2022-07-25T09:05:59.448Z,21.97
2022-07-25T09:06:59.430Z,21.98
2022-07-25T09:07:59.419Z,22.05
2022-07-25T09:08:59.519Z,22.03
2022-07-25T09:09:59.395Z,22.00
2022-07-25T09:10:59.375Z,22.01
2022-07-25T09:11:59.371Z,21.96
2022-07-25T09:12:59.347Z,21.97
2022-07-25T09:13:59.349Z,22.01
2022-07-25T09:14:59.329Z,22.03
2022-07-25T09:15:59.425Z,22.05
2022-07-25T09:16:59.301Z,21.96
2022-07-25T09:17:59.281Z,21.97
2022-07-25T09:18:59.269Z,22.05
2022-07-25T09:19:59.268Z,22.05
2022-07-25T09:20:59.252Z,22.03
2022-07-25T09:21:59.556Z,22.05
2022-07-25T09:22:59.227Z,22.06
2022-07-25T09:23:59.206Z,22.06
2022-07-25T09:24:59.186Z,22.11
2022-07-25T09:25:59.182Z,22.08
2022-07-25T09:26:59.167Z,22.06
2022-07-25T09:27:59.154Z,22.08
2022-07-25T09:28:59.139Z,22.11
2022-07-25T09:29:59.133Z,22.12
2022-07-25T09:30:59.174Z,22.15
2022-07-25T09:31:59.093Z,22.19
2022-07-25T09:32:59.082Z,22.19
2022-07-25T09:33:59.100Z,22.19
2022-07-25T09:34:59.067Z,22.19
2022-07-25T09:35:59.042Z,22.12
2022-07-25T09:36:59.031Z,22.12
2022-07-25T09:37:59.014Z,22.13
2022-07-25T09:38:59.012Z,22.15
2022-07-25T09:39:58.994Z,22.21
2022-07-25T09:40:58.984Z,22.21
2022-07-25T09:41:58.970Z,22.19
2022-07-25T09:42:58.958Z,22.22
2022-07-25T09:43:58.956Z,22.26
2022-07-25T09:44:58.932Z,22.28
2022-07-25T09:45:58.970Z,22.34
2022-07-25T09:46:58.896Z,22.31
2022-07-25T09:47:58.881Z,22.31
2022-07-25T09:48:58.939Z,22.33
2022-07-25T09:49:58.860Z,22.28
2022-07-25T09:50:58.844Z,22.26
2022-07-25T09:51:58.832Z,22.22
2022-07-25T09:52:58.834Z,22.21
2022-07-25T09:53:58.805Z,22.21
2022-07-25T09:54:58.788Z,22.24
2022-07-25T09:55:58.782Z,22.24
2022-07-25T09:56:58.762Z,22.22
2022-07-25T09:57:58.752Z,22.21
2022-07-25T09:58:58.743Z,22.19
2022-07-25T09:59:58.729Z,22.21
2022-07-25T10:00:58.756Z,22.21
2022-07-25T10:01:58.790Z,22.18
2022-07-25T10:02:58.839Z,22.22
2022-07-25T10:03:58.671Z,22.26
2022-07-25T10:04:58.655Z,22.26
2022-07-25T10:05:58.640Z,22.26
2022-07-25T10:06:58.638Z,22.30
2022-07-25T10:07:58.619Z,22.28
2022-07-25T10:08:58.603Z,22.24
2022-07-25T10:09:58.595Z,22.18
2022-07-25T10:10:58.582Z,22.19
2022-07-25T10:11:58.569Z,22.15
2022-07-25T10:12:58.549Z,22.16
2022-07-25T10:13:58.533Z,22.21
2022-07-25T10:14:58.523Z,22.24
2022-07-25T10:15:58.514Z,22.33
2022-07-25T10:16:58.560Z,22.36
2022-07-25T10:17:58.482Z,22.42
2022-07-25T10:18:58.469Z,22.55
2022-07-25T10:19:59.091Z,22.68
2022-07-25T10:20:58.443Z,22.74
2022-07-25T10:21:58.434Z,22.77
2022-07-25T10:22:58.713Z,22.74
2022-07-25T10:23:58.409Z,22.71
2022-07-25T10:24:58.397Z,22.69
2022-07-25T10:25:58.382Z,22.75
2022-07-25T10:26:58.362Z,22.77
2022-07-25T10:27:58.352Z,22.74
2022-07-25T10:28:58.336Z,22.74
2022-07-25T10:29:58.328Z,22.72
2022-07-25T10:30:58.391Z,22.69
2022-07-25T10:31:58.297Z,22.71
2022-07-25T10:32:58.286Z,22.72
2022-07-25T10:33:58.272Z,22.71
2022-07-25T10:34:58.252Z,22.77
2022-07-25T10:35:58.250Z,22.82
2022-07-25T10:36:58.229Z,22.77
2022-07-25T10:37:58.217Z,22.72
2022-07-25T10:38:58.203Z,22.72
2022-07-25T10:39:58.197Z,22.75
2022-07-25T10:40:58.184Z,22.75
2022-07-25T10:41:58.159Z,22.80
2022-07-25T10:42:58.150Z,22.83
2022-07-25T10:43:58.140Z,22.84
2022-07-25T10:44:58.123Z,22.83
2022-07-25T10:45:58.219Z,22.82
2022-07-25T10:46:58.106Z,22.78
2022-07-25T10:47:58.086Z,22.77
2022-07-25T10:48:58.182Z,22.80
2022-07-25T10:50:59.264Z,22.87
2022-07-25T10:51:58.034Z,22.87
2022-07-25T10:52:58.034Z,22.90
2022-07-25T10:53:58.005Z,22.87
2022-07-25T10:54:57.994Z,22.86
2022-07-25T10:56:05.719Z,22.83
2022-07-25T10:56:59.970Z,22.83
2022-07-25T10:58:16.599Z,22.82
2022-07-25T10:58:58.980Z,22.78
2022-07-25T10:59:57.929Z,22.75
2022-07-25T11:00:57.991Z,22.72
2022-07-25T11:01:57.899Z,22.69
2022-07-25T11:02:58.029Z,22.67
2022-07-25T11:03:57.908Z,22.65
2022-07-25T11:04:57.873Z,22.65
2022-07-25T11:05:57.851Z,22.59
2022-07-25T11:06:57.839Z,22.55
2022-07-25T11:08:20.653Z,22.51
2022-07-25T11:08:58.841Z,22.53
2022-07-25T11:09:57.810Z,22.53
2022-07-25T11:10:57.791Z,22.53
2022-07-25T11:11:57.780Z,22.65
2022-07-25T11:12:57.758Z,22.72
2022-07-25T11:13:57.748Z,22.74
2022-07-25T11:14:57.737Z,22.74
2022-07-25T11:15:57.720Z,22.72
2022-07-25T11:16:57.830Z,22.74
2022-07-25T11:17:57.696Z,22.82
2022-07-25T11:18:57.685Z,22.96
2022-07-25T11:19:57.682Z,23.09
2022-07-25T11:20:57.660Z,23.12
2022-07-25T11:21:57.647Z,23.11
2022-07-25T11:22:57.633Z,23.05
2022-07-25T11:23:57.624Z,23.01
2022-07-25T11:24:57.600Z,22.92
2022-07-25T11:25:57.592Z,22.87
2022-07-25T11:26:57.579Z,22.84
2022-07-25T11:27:57.568Z,22.78
2022-07-25T11:28:57.553Z,22.74
2022-07-25T11:29:57.540Z,22.69
2022-07-25T11:30:57.530Z,22.69
2022-07-25T11:31:57.592Z,22.74
2022-07-25T11:32:57.505Z,22.75
2022-07-25T11:33:57.495Z,22.83
2022-07-25T11:34:57.486Z,22.92
2022-07-25T11:35:57.471Z,22.93
2022-07-25T11:36:57.463Z,22.93
2022-07-25T11:37:57.445Z,22.87
2022-07-25T11:38:57.426Z,22.89
2022-07-25T11:39:57.409Z,22.92
2022-07-25T11:40:57.400Z,22.96
2022-07-25T11:41:57.385Z,22.94
2022-07-25T11:42:57.374Z,22.87
2022-07-25T11:43:57.361Z,22.86
2022-07-25T11:44:57.352Z,22.89
2022-07-25T11:45:57.413Z,22.96
2022-07-25T11:46:57.321Z,23.05
2022-07-25T11:47:57.314Z,23.11
2022-07-25T11:48:57.397Z,23.12
2022-07-25T11:49:57.288Z,23.08
2022-07-25T11:50:57.275Z,23.09
2022-07-25T11:51:57.253Z,23.14
2022-07-25T11:52:57.243Z,23.12
2022-07-25T11:53:57.238Z,23.11
2022-07-25T11:54:57.213Z,23.11
2022-07-25T11:55:57.212Z,23.02
2022-07-25T11:56:57.192Z,23.01
2022-07-25T11:57:57.187Z,22.97
2022-07-25T11:58:57.162Z,22.96
2022-07-25T11:59:57.153Z,22.94
2022-07-25T12:00:57.139Z,22.96
2022-07-25T12:01:57.189Z,22.94
2022-07-25T12:02:57.247Z,22.97
2022-07-25T12:03:57.099Z,23.04
2022-07-25T12:04:57.092Z,23.02
2022-07-25T12:05:57.074Z,23.04
2022-07-25T12:06:57.060Z,23.05
2022-07-25T12:07:57.049Z,23.04
2022-07-25T12:08:57.037Z,23.02
2022-07-25T12:09:57.024Z,22.99
2022-07-25T12:10:57.019Z,22.99
2022-07-25T12:11:56.998Z,23.01
2022-07-25T12:12:56.988Z,23.04
2022-07-25T12:13:56.970Z,23.04
2022-07-25T12:14:56.964Z,23.01
2022-07-25T12:15:56.946Z,23.02
2022-07-25T12:16:56.986Z,23.07
2022-07-25T12:17:56.931Z,23.09
2022-07-25T12:18:56.916Z,23.07
2022-07-25T12:19:56.907Z,23.05
2022-07-25T12:20:56.885Z,23.04
2022-07-25T12:21:56.877Z,23.02
2022-07-25T12:22:56.862Z,22.99
2022-07-25T12:23:56.843Z,22.97
2022-07-25T12:24:56.836Z,22.99
2022-07-25T12:25:56.817Z,23.04
2022-07-25T12:26:56.806Z,23.04
2022-07-25T12:27:56.791Z,23.09
2022-07-25T12:28:56.778Z,23.12
2022-07-25T12:29:56.766Z,23.14
2022-07-25T12:30:57.063Z,23.14
2022-07-25T12:31:56.742Z,23.11
2022-07-25T12:32:56.738Z,23.08
2022-07-25T12:33:56.714Z,23.08
2022-07-25T12:34:56.706Z,23.08
2022-07-25T12:35:56.698Z,23.12
2022-07-25T12:36:56.680Z,23.12
2022-07-25T12:37:56.664Z,23.08
2022-07-25T12:38:56.658Z,23.09
2022-07-25T12:39:56.638Z,23.11
2022-07-25T12:40:56.628Z,23.11
2022-07-25T12:41:56.622Z,23.15
2022-07-25T12:42:56.603Z,23.14
2022-07-25T12:43:56.588Z,23.11
2022-07-25T12:44:56.573Z,23.11
2022-07-25T12:45:56.636Z,23.11
2022-07-25T12:46:56.546Z,23.09
2022-07-25T12:47:56.544Z,23.04
2022-07-25T12:48:56.560Z,23.05
2022-07-25T12:49:56.508Z,23.04
2022-07-25T12:50:56.495Z,23.09
2022-07-25T12:51:58.265Z,23.12
2022-07-25T12:52:56.471Z,23.08